Home PIREPS Pireps

Flight BEL877

  • Submitted By: Marc Toussaint
  • Departure Airport: Miami International Airport (KMIA)
  • Arrival Airport: JFK Airport (KJFK)
  • Aircraft: A320-214 (OO-SNF)
  • Flight Time: 02.51
  • Date Submitted: 09/02/2018
  • Route: KMIA-KJFK
  • Status: Accepted
Flight Details
Gross Revenue:
(132 load / € 0.00 per unit
€ 0.00
Fuel Cost:
(12254 fuel used @ 0 / unit)
€ 0.00

Additional Log Information:

View Log

Aircraft Used in flight is Boeing 757-300 Lufthansa Concept 2008
21:06 Brakes are On
21:06 Brakes are Released
21:09 You Took off @ 149 Knots and Flaps at Position 3
Departure Weather
KMIA 091853Z 11015KT 10SM BKN025 BKN250 27/20 A3018 RMK AO2 SLP219 T02720200rn
21:09 Landing Gear Up @ 146 Knots and 40 Feet
21:10 You exceeded maximum bank angle
23:29 Below FL100 you need to turn on the landing lights
23:37 Below 10000 feet you are not allowed to go over 250 knots
23:37 You Landed @ 286 Knots and with -6650 Vertical Speed
Arrival Weather
KJFK 092051Z 18012KT 10SM FEW038 FEW060 BKN075 OVC200 01/M06 A3050 RMK AO2 SLP328 T00061061 56016rn
23:37 Your Landing was very hard
23:38 Paused
23:38 Unpaused
23:38 Below Fl100 you need to turn on the landing lights
23:42 Paused
23:42 Unpaused
23:43 Landing Gear Down @ 181 Knots and 2440 Feet
23:54 Brakes are On
23:57 Paused
23:57 Brussels Bel-Track1.0.1.2

Route Map

Corporate About Us Our Team Vacancies Information Fleet Route Network Rules and Regulations Operations Flight Schedules Event Center Tours Partners IVAO Vatsim Acars dev FSCB

fb Users Online Belgium Bart Dammans, Belgium Jan Roscam,
3 Pilot(s) and 100 Guest(s) Online
CMS by phpVMS - Design by Crazycreatives.com - Copyright © 2018 - Brussels Airlines Virtual